sensor_id;sensor_type;location;lat;lon;timestamp;pressure;altitude;pressure_sealevel;temperature;humidity
50430;BME280;36359;41.556;-8.418;2022-08-19T00:01:28;100284.59;;;21.89;42.08
50430;BME280;36359;41.556;-8.418;2022-08-19T00:03:57;100286.34;;;21.83;41.95
50430;BME280;36359;41.556;-8.418;2022-08-19T00:06:25;100290.16;;;21.82;41.79
50430;BME280;36359;41.556;-8.418;2022-08-19T00:08:51;100278.66;;;21.85;41.96
50430;BME280;36359;41.556;-8.418;2022-08-19T00:11:17;100283.19;;;21.80;41.96
50430;BME280;36359;41.556;-8.418;2022-08-19T00:13:42;100283.19;;;21.80;41.86
50430;BME280;36359;41.556;-8.418;2022-08-19T00:16:08;100281.03;;;21.82;41.97
50430;BME280;36359;41.556;-8.418;2022-08-19T00:18:37;100283.84;;;21.75;42.48
50430;BME280;36359;41.556;-8.418;2022-08-19T00:21:03;100279.75;;;22.09;44.90
50430;BME280;36359;41.556;-8.418;2022-08-19T00:23:33;100283.34;;;22.10;42.23
50430;BME280;36359;41.556;-8.418;2022-08-19T00:26:00;100279.03;;;21.95;42.70
50430;BME280;36359;41.556;-8.418;2022-08-19T00:28:26;100281.72;;;22.27;44.44
50430;BME280;36359;41.556;-8.418;2022-08-19T00:30:52;100277.44;;;22.31;43.78
50430;BME280;36359;41.556;-8.418;2022-08-19T00:33:19;100278.34;;;22.25;42.21
50430;BME280;36359;41.556;-8.418;2022-08-19T00:35:44;100276.50;;;22.19;41.43
50430;BME280;36359;41.556;-8.418;2022-08-19T00:38:10;100277.16;;;21.89;42.49
50430;BME280;36359;41.556;-8.418;2022-08-19T00:40:36;100277.81;;;21.85;42.28
50430;BME280;36359;41.556;-8.418;2022-08-19T00:43:10;100281.28;;;21.80;42.30
50430;BME280;36359;41.556;-8.418;2022-08-19T00:45:39;100271.97;;;21.74;42.70
50430;BME280;36359;41.556;-8.418;2022-08-19T00:48:08;100274.56;;;21.69;43.04
50430;BME280;36359;41.556;-8.418;2022-08-19T00:50:34;100274.16;;;21.66;43.34
50430;BME280;36359;41.556;-8.418;2022-08-19T00:53:01;100271.84;;;21.63;43.27
50430;BME280;36359;41.556;-8.418;2022-08-19T00:55:31;100274.44;;;21.58;43.35
50430;BME280;36359;41.556;-8.418;2022-08-19T00:58:02;100273.72;;;21.69;42.94
50430;BME280;36359;41.556;-8.418;2022-08-19T01:00:32;100276.22;;;21.70;43.43
50430;BME280;36359;41.556;-8.418;2022-08-19T01:03:00;100267.38;;;21.62;43.41
50430;BME280;36359;41.556;-8.418;2022-08-19T01:05:27;100267.88;;;21.52;43.97
50430;BME280;36359;41.556;-8.418;2022-08-19T01:07:56;100266.19;;;21.51;44.48
50430;BME280;36359;41.556;-8.418;2022-08-19T01:10:25;100267.25;;;21.50;44.95
50430;BME280;36359;41.556;-8.418;2022-08-19T01:12:52;100270.53;;;21.33;45.38
50430;BME280;36359;41.556;-8.418;2022-08-19T01:15:23;100264.88;;;21.22;45.65
50430;BME280;36359;41.556;-8.418;2022-08-19T01:17:49;100265.06;;;21.27;45.76
50430;BME280;36359;41.556;-8.418;2022-08-19T01:20:20;100267.38;;;21.30;45.60
50430;BME280;36359;41.556;-8.418;2022-08-19T01:22:54;100265.94;;;21.21;45.80
50430;BME280;36359;41.556;-8.418;2022-08-19T01:25:24;100259.59;;;21.14;46.55
50430;BME280;36359;41.556;-8.418;2022-08-19T01:27:52;100262.59;;;21.05;46.84
50430;BME280;36359;41.556;-8.418;2022-08-19T01:30:23;100270.28;;;21.03;46.65
50430;BME280;36359;41.556;-8.418;2022-08-19T01:32:49;100255.81;;;21.08;46.76
50430;BME280;36359;41.556;-8.418;2022-08-19T01:35:17;100255.00;;;21.01;47.02
50430;BME280;36359;41.556;-8.418;2022-08-19T01:40:12;100250.09;;;21.03;47.27
50430;BME280;36359;41.556;-8.418;2022-08-19T01:42:38;100248.56;;;21.14;46.90
50430;BME280;36359;41.556;-8.418;2022-08-19T01:45:05;100253.19;;;21.20;46.47
50430;BME280;36359;41.556;-8.418;2022-08-19T01:47:37;100251.72;;;21.24;46.21
50430;BME280;36359;41.556;-8.418;2022-08-19T01:50:06;100255.88;;;21.33;45.78
50430;BME280;36359;41.556;-8.418;2022-08-19T01:52:35;100255.66;;;21.35;45.78
50430;BME280;36359;41.556;-8.418;2022-08-19T01:55:01;100255.03;;;21.39;45.73
50430;BME280;36359;41.556;-8.418;2022-08-19T01:57:28;100251.81;;;21.42;45.46
50430;BME280;36359;41.556;-8.418;2022-08-19T01:59:53;100250.41;;;21.58;46.59
50430;BME280;36359;41.556;-8.418;2022-08-19T02:02:19;100250.81;;;21.62;45.38
50430;BME280;36359;41.556;-8.418;2022-08-19T02:04:45;100256.56;;;21.60;46.50
50430;BME280;36359;41.556;-8.418;2022-08-19T02:07:11;100250.97;;;21.42;45.69
50430;BME280;36359;41.556;-8.418;2022-08-19T02:09:37;100246.53;;;21.34;46.37
50430;BME280;36359;41.556;-8.418;2022-08-19T02:12:04;100243.56;;;21.36;46.19
50430;BME280;36359;41.556;-8.418;2022-08-19T02:14:30;100250.47;;;21.51;47.36
50430;BME280;36359;41.556;-8.418;2022-08-19T02:16:56;100245.91;;;21.39;46.25
50430;BME280;36359;41.556;-8.418;2022-08-19T02:19:21;100248.63;;;21.45;48.04
50430;BME280;36359;41.556;-8.418;2022-08-19T02:21:47;100256.19;;;21.82;47.12
50430;BME280;36359;41.556;-8.418;2022-08-19T02:24:13;100244.69;;;21.60;46.12
50430;BME280;36359;41.556;-8.418;2022-08-19T02:26:39;100250.97;;;21.35;47.07
50430;BME280;36359;41.556;-8.418;2022-08-19T02:29:07;100243.50;;;21.10;47.47
50430;BME280;36359;41.556;-8.418;2022-08-19T02:31:33;100251.31;;;21.14;47.30
50430;BME280;36359;41.556;-8.418;2022-08-19T02:33:58;100245.59;;;21.15;47.08
50430;BME280;36359;41.556;-8.418;2022-08-19T02:36:25;100246.22;;;21.17;47.26
50430;BME280;36359;41.556;-8.418;2022-08-19T02:38:51;100244.91;;;21.20;46.92
50430;BME280;36359;41.556;-8.418;2022-08-19T02:41:20;100243.06;;;21.14;47.51
50430;BME280;36359;41.556;-8.418;2022-08-19T02:43:47;100247.94;;;21.12;47.69
50430;BME280;36359;41.556;-8.418;2022-08-19T02:46:22;100252.00;;;21.09;47.83
50430;BME280;36359;41.556;-8.418;2022-08-19T02:48:49;100257.13;;;20.99;47.91
50430;BME280;36359;41.556;-8.418;2022-08-19T02:51:21;100251.69;;;20.85;48.33
50430;BME280;36359;41.556;-8.418;2022-08-19T02:53:47;100243.59;;;20.91;47.80
50430;BME280;36359;41.556;-8.418;2022-08-19T02:56:13;100243.59;;;20.97;47.54
50430;BME280;36359;41.556;-8.418;2022-08-19T02:58:39;100242.69;;;21.03;47.77
50430;BME280;36359;41.556;-8.418;2022-08-19T03:01:06;100246.34;;;20.91;48.22
50430;BME280;36359;41.556;-8.418;2022-08-19T03:03:32;100250.53;;;21.00;47.97
50430;BME280;36359;41.556;-8.418;2022-08-19T03:06:08;100250.53;;;21.06;47.86
50430;BME280;36359;41.556;-8.418;2022-08-19T03:08:34;100245.19;;;21.12;47.50
50430;BME280;36359;41.556;-8.418;2022-08-19T03:11:00;100251.50;;;21.19;47.33
50430;BME280;36359;41.556;-8.418;2022-08-19T03:13:26;100252.47;;;21.38;47.59
50430;BME280;36359;41.556;-8.418;2022-08-19T03:15:52;100249.97;;;21.36;46.76
50430;BME280;36359;41.556;-8.418;2022-08-19T03:18:17;100254.41;;;21.37;46.56
50430;BME280;36359;41.556;-8.418;2022-08-19T03:20:48;100254.19;;;21.32;46.91
50430;BME280;36359;41.556;-8.418;2022-08-19T03:23:14;100257.06;;;21.50;47.03
50430;BME280;36359;41.556;-8.418;2022-08-19T03:25:44;100252.75;;;21.86;48.32
50430;BME280;36359;41.556;-8.418;2022-08-19T03:28:11;100262.28;;;21.90;46.32
50430;BME280;36359;41.556;-8.418;2022-08-19T03:30:38;100254.34;;;21.44;47.34
50430;BME280;36359;41.556;-8.418;2022-08-19T03:33:07;100259.91;;;21.37;47.41
50430;BME280;36359;41.556;-8.418;2022-08-19T03:35:33;100255.25;;;21.31;46.81
50430;BME280;36359;41.556;-8.418;2022-08-19T03:38:03;100258.00;;;21.31;47.32
50430;BME280;36359;41.556;-8.418;2022-08-19T03:40:30;100248.88;;;21.37;47.67
50430;BME280;36359;41.556;-8.418;2022-08-19T03:43:00;100252.88;;;21.41;48.58
50430;BME280;36359;41.556;-8.418;2022-08-19T03:45:26;100256.44;;;21.48;47.84
50430;BME280;36359;41.556;-8.418;2022-08-19T03:47:53;100255.22;;;21.44;47.47
50430;BME280;36359;41.556;-8.418;2022-08-19T03:50:19;100257.63;;;21.27;47.28
50430;BME280;36359;41.556;-8.418;2022-08-19T03:52:49;100250.69;;;21.18;47.12
50430;BME280;36359;41.556;-8.418;2022-08-19T03:55:17;100251.88;;;21.29;46.82
50430;BME280;36359;41.556;-8.418;2022-08-19T03:57:42;100243.81;;;21.27;47.04
50430;BME280;36359;41.556;-8.418;2022-08-19T04:00:09;100252.09;;;21.27;47.11
50430;BME280;36359;41.556;-8.418;2022-08-19T04:02:35;100253.06;;;21.46;48.83
50430;BME280;36359;41.556;-8.418;2022-08-19T04:05:01;100255.34;;;21.81;48.75
50430;BME280;36359;41.556;-8.418;2022-08-19T04:07:26;100257.16;;;21.69;46.51
50430;BME280;36359;41.556;-8.418;2022-08-19T04:09:52;100259.22;;;21.98;47.89
50430;BME280;36359;41.556;-8.418;2022-08-19T04:12:18;100255.28;;;22.13;47.98
50430;BME280;36359;41.556;-8.418;2022-08-19T04:14:46;100260.47;;;22.28;46.99
50430;BME280;36359;41.556;-8.418;2022-08-19T04:17:12;100260.00;;;22.06;46.89
50430;BME280;36359;41.556;-8.418;2022-08-19T04:19:39;100265.69;;;22.11;47.06
50430;BME280;36359;41.556;-8.418;2022-08-19T04:22:05;100261.31;;;22.47;47.12
50430;BME280;36359;41.556;-8.418;2022-08-19T04:24:32;100262.47;;;22.39;47.32
50430;BME280;36359;41.556;-8.418;2022-08-19T04:27:00;100269.81;;;21.76;47.15
50430;BME280;36359;41.556;-8.418;2022-08-19T04:29:26;100265.03;;;21.90;48.63
50430;BME280;36359;41.556;-8.418;2022-08-19T04:31:54;100269.88;;;21.70;47.37
50430;BME280;36359;41.556;-8.418;2022-08-19T04:34:22;100272.25;;;21.91;48.56
50430;BME280;36359;41.556;-8.418;2022-08-19T04:36:49;100270.38;;;22.10;48.22
50430;BME280;36359;41.556;-8.418;2022-08-19T04:39:19;100273.13;;;22.35;47.70
50430;BME280;36359;41.556;-8.418;2022-08-19T04:41:46;100274.28;;;22.46;47.75
50430;BME280;36359;41.556;-8.418;2022-08-19T04:44:34;100272.06;;;22.55;46.95
50430;BME280;36359;41.556;-8.418;2022-08-19T04:47:01;100277.88;;;22.28;47.96
50430;BME280;36359;41.556;-8.418;2022-08-19T04:49:27;100281.41;;;22.17;46.92
50430;BME280;36359;41.556;-8.418;2022-08-19T04:51:54;100279.56;;;21.54;48.14
50430;BME280;36359;41.556;-8.418;2022-08-19T04:54:23;100278.09;;;21.51;49.67
50430;BME280;36359;41.556;-8.418;2022-08-19T04:56:53;100283.84;;;21.75;49.07
50430;BME280;36359;41.556;-8.418;2022-08-19T04:59:20;100284.63;;;21.19;48.91
50430;BME280;36359;41.556;-8.418;2022-08-19T05:01:47;100283.03;;;21.74;49.36
50430;BME280;36359;41.556;-8.418;2022-08-19T05:04:19;100291.06;;;21.76;49.28
50430;BME280;36359;41.556;-8.418;2022-08-19T05:06:48;100291.31;;;21.74;47.48
50430;BME280;36359;41.556;-8.418;2022-08-19T05:09:15;100285.28;;;21.84;48.27
50430;BME280;36359;41.556;-8.418;2022-08-19T05:11:43;100285.09;;;21.79;48.01
50430;BME280;36359;41.556;-8.418;2022-08-19T05:14:10;100282.00;;;21.69;49.10
50430;BME280;36359;41.556;-8.418;2022-08-19T05:16:38;100274.84;;;21.86;48.92
50430;BME280;36359;41.556;-8.418;2022-08-19T05:19:04;100283.84;;;22.00;49.25
50430;BME280;36359;41.556;-8.418;2022-08-19T05:21:49;100282.00;;;21.37;48.02
50430;BME280;36359;41.556;-8.418;2022-08-19T05:24:33;100292.34;;;20.97;50.45
50430;BME280;36359;41.556;-8.418;2022-08-19T05:27:00;100291.78;;;20.81;51.46
50430;BME280;36359;41.556;-8.418;2022-08-19T05:29:29;100292.72;;;20.49;50.18
50430;BME280;36359;41.556;-8.418;2022-08-19T05:31:57;100292.00;;;21.25;51.59
50430;BME280;36359;41.556;-8.418;2022-08-19T05:34:24;100292.97;;;21.44;50.46
50430;BME280;36359;41.556;-8.418;2022-08-19T05:36:56;100290.22;;;21.50;50.02
50430;BME280;36359;41.556;-8.418;2022-08-19T05:39:24;100302.88;;;21.20;49.20
50430;BME280;36359;41.556;-8.418;2022-08-19T05:42:02;100302.19;;;20.79;49.72
50430;BME280;36359;41.556;-8.418;2022-08-19T05:44:31;100315.84;;;19.88;51.66
50430;BME280;36359;41.556;-8.418;2022-08-19T05:46:58;100310.72;;;20.71;52.69
50430;BME280;36359;41.556;-8.418;2022-08-19T05:49:25;100312.66;;;21.16;51.26
50430;BME280;36359;41.556;-8.418;2022-08-19T05:51:53;100317.84;;;20.92;49.78
50430;BME280;36359;41.556;-8.418;2022-08-19T05:54:21;100313.56;;;20.96;48.57
50430;BME280;36359;41.556;-8.418;2022-08-19T05:56:52;100319.75;;;20.85;48.97
50430;BME280;36359;41.556;-8.418;2022-08-19T05:59:19;100322.09;;;20.88;48.77
50430;BME280;36359;41.556;-8.418;2022-08-19T06:01:48;100327.59;;;20.88;50.05
50430;BME280;36359;41.556;-8.418;2022-08-19T06:04:19;100324.50;;;20.71;49.94
50430;BME280;36359;41.556;-8.418;2022-08-19T06:06:50;100329.66;;;21.13;51.81
50430;BME280;36359;41.556;-8.418;2022-08-19T06:09:18;100342.09;;;20.77;48.17
50430;BME280;36359;41.556;-8.418;2022-08-19T06:11:49;100340.81;;;20.73;49.05
50430;BME280;36359;41.556;-8.418;2022-08-19T06:14:21;100343.88;;;21.03;48.90
50430;BME280;36359;41.556;-8.418;2022-08-19T06:16:48;100341.34;;;21.53;50.13
50430;BME280;36359;41.556;-8.418;2022-08-19T06:19:18;100335.31;;;21.69;49.30
50430;BME280;36359;41.556;-8.418;2022-08-19T06:21:46;100343.50;;;21.83;49.57
50430;BME280;36359;41.556;-8.418;2022-08-19T06:24:16;100348.59;;;21.79;49.24
50430;BME280;36359;41.556;-8.418;2022-08-19T06:26:44;100352.25;;;21.73;47.05
50430;BME280;36359;41.556;-8.418;2022-08-19T06:29:12;100353.91;;;20.91;48.90
50430;BME280;36359;41.556;-8.418;2022-08-19T06:31:42;100363.75;;;21.25;47.74
50430;BME280;36359;41.556;-8.418;2022-08-19T06:34:08;100365.31;;;21.07;48.88
50430;BME280;36359;41.556;-8.418;2022-08-19T06:36:38;100349.56;;;21.21;48.99
50430;BME280;36359;41.556;-8.418;2022-08-19T06:39:05;100357.75;;;21.41;50.39
50430;BME280;36359;41.556;-8.418;2022-08-19T06:41:35;100361.97;;;21.82;49.81
50430;BME280;36359;41.556;-8.418;2022-08-19T06:44:01;100366.50;;;22.02;48.24
50430;BME280;36359;41.556;-8.418;2022-08-19T06:46:27;100360.28;;;22.13;48.70
50430;BME280;36359;41.556;-8.418;2022-08-19T06:48:54;100362.38;;;21.86;48.97
50430;BME280;36359;41.556;-8.418;2022-08-19T06:51:21;100367.63;;;21.62;48.00
50430;BME280;36359;41.556;-8.418;2022-08-19T06:53:49;100375.13;;;20.90;49.96
50430;BME280;36359;41.556;-8.418;2022-08-19T06:56:17;100376.41;;;20.94;50.08
50430;BME280;36359;41.556;-8.418;2022-08-19T06:58:43;100372.28;;;21.17;50.30
50430;BME280;36359;41.556;-8.418;2022-08-19T07:01:09;100367.84;;;21.16;50.56
50430;BME280;36359;41.556;-8.418;2022-08-19T07:03:37;100372.47;;;21.22;49.17
50430;BME280;36359;41.556;-8.418;2022-08-19T07:06:06;100373.13;;;21.24;48.65
50430;BME280;36359;41.556;-8.418;2022-08-19T07:08:33;100378.25;;;21.59;50.60
50430;BME280;36359;41.556;-8.418;2022-08-19T07:11:00;100387.91;;;21.81;48.85
50430;BME280;36359;41.556;-8.418;2022-08-19T07:13:26;100384.03;;;22.20;49.47
50430;BME280;36359;41.556;-8.418;2022-08-19T07:15:52;100375.41;;;22.35;48.22
50430;BME280;36359;41.556;-8.418;2022-08-19T07:18:19;100382.47;;;22.31;48.00
50430;BME280;36359;41.556;-8.418;2022-08-19T07:20:46;100374.44;;;22.23;47.65
50430;BME280;36359;41.556;-8.418;2022-08-19T07:23:12;100381.69;;;22.24;48.51
50430;BME280;36359;41.556;-8.418;2022-08-19T07:25:38;100378.09;;;22.17;47.47
50430;BME280;36359;41.556;-8.418;2022-08-19T07:28:04;100382.97;;;22.21;47.45
50430;BME280;36359;41.556;-8.418;2022-08-19T07:30:30;100388.78;;;22.38;47.54
50430;BME280;36359;41.556;-8.418;2022-08-19T07:32:56;100388.19;;;22.55;46.28
50430;BME280;36359;41.556;-8.418;2022-08-19T07:35:22;100388.72;;;22.45;46.15
50430;BME280;36359;41.556;-8.418;2022-08-19T07:37:49;100391.94;;;22.42;46.04
50430;BME280;36359;41.556;-8.418;2022-08-19T07:40:15;100388.66;;;22.52;45.55
50430;BME280;36359;41.556;-8.418;2022-08-19T07:42:42;100392.19;;;22.59;45.13
50430;BME280;36359;41.556;-8.418;2022-08-19T07:45:09;100389.25;;;22.79;45.50
50430;BME280;36359;41.556;-8.418;2022-08-19T07:47:35;100394.31;;;22.82;45.23
50430;BME280;36359;41.556;-8.418;2022-08-19T07:50:01;100395.44;;;22.99;44.54
50430;BME280;36359;41.556;-8.418;2022-08-19T07:52:29;100394.47;;;23.12;44.77
50430;BME280;36359;41.556;-8.418;2022-08-19T07:54:55;100402.88;;;23.17;44.46
50430;BME280;36359;41.556;-8.418;2022-08-19T07:57:21;100404.06;;;23.28;44.61
50430;BME280;36359;41.556;-8.418;2022-08-19T07:59:46;100398.88;;;23.31;44.50
50430;BME280;36359;41.556;-8.418;2022-08-19T08:02:12;100401.03;;;23.29;45.22
50430;BME280;36359;41.556;-8.418;2022-08-19T08:04:38;100397.44;;;23.47;45.17
50430;BME280;36359;41.556;-8.418;2022-08-19T08:07:22;100403.81;;;23.48;45.20
50430;BME280;36359;41.556;-8.418;2022-08-19T08:10:07;100404.84;;;23.65;45.02
50430;BME280;36359;41.556;-8.418;2022-08-19T08:12:39;100407.75;;;23.89;44.15
50430;BME280;36359;41.556;-8.418;2022-08-19T08:15:12;100410.16;;;23.97;44.13
50430;BME280;36359;41.556;-8.418;2022-08-19T08:17:42;100415.38;;;24.05;44.34
50430;BME280;36359;41.556;-8.418;2022-08-19T08:20:08;100409.53;;;24.25;43.97
50430;BME280;36359;41.556;-8.418;2022-08-19T08:22:34;100409.28;;;24.38;43.88
50430;BME280;36359;41.556;-8.418;2022-08-19T08:25:23;100413.31;;;24.42;43.20
50430;BME280;36359;41.556;-8.418;2022-08-19T08:27:50;100412.25;;;24.55;42.27
50430;BME280;36359;41.556;-8.418;2022-08-19T08:30:21;100418.75;;;24.84;41.34
50430;BME280;36359;41.556;-8.418;2022-08-19T08:32:48;100417.09;;;24.83;41.01
50430;BME280;36359;41.556;-8.418;2022-08-19T08:35:16;100415.84;;;24.91;40.86
50430;BME280;36359;41.556;-8.418;2022-08-19T08:37:43;100426.59;;;24.87;40.53
50430;BME280;36359;41.556;-8.418;2022-08-19T08:45:49;100434.44;;;25.14;40.37
50430;BME280;36359;41.556;-8.418;2022-08-19T08:48:24;100434.81;;;25.18;40.13
50430;BME280;36359;41.556;-8.418;2022-08-19T08:50:57;100427.41;;;25.11;40.19
50430;BME280;36359;41.556;-8.418;2022-08-19T08:53:25;100431.16;;;25.29;39.55
50430;BME280;36359;41.556;-8.418;2022-08-19T08:55:51;100435.47;;;25.48;39.51
50430;BME280;36359;41.556;-8.418;2022-08-19T08:58:24;100432.22;;;25.51;39.76
50430;BME280;36359;41.556;-8.418;2022-08-19T09:00:52;100426.84;;;25.61;39.34
50430;BME280;36359;41.556;-8.418;2022-08-19T09:03:26;100428.44;;;25.57;39.19
50430;BME280;36359;41.556;-8.418;2022-08-19T09:06:04;100429.00;;;25.83;39.46
50430;BME280;36359;41.556;-8.418;2022-08-19T09:17:08;100416.75;;;26.29;38.85
50430;BME280;36359;41.556;-8.418;2022-08-19T09:19:36;100417.19;;;26.38;38.88
50430;BME280;36359;41.556;-8.418;2022-08-19T09:22:12;100421.75;;;26.44;39.00
50430;BME280;36359;41.556;-8.418;2022-08-19T09:24:38;100418.66;;;26.58;38.78
50430;BME280;36359;41.556;-8.418;2022-08-19T09:27:05;100415.31;;;26.44;37.38
50430;BME280;36359;41.556;-8.418;2022-08-19T09:29:30;100418.22;;;26.66;36.65
50430;BME280;36359;41.556;-8.418;2022-08-19T09:31:56;100432.19;;;26.88;36.58
50430;BME280;36359;41.556;-8.418;2022-08-19T09:34:22;100423.09;;;26.92;36.92
50430;BME280;36359;41.556;-8.418;2022-08-19T09:36:48;100424.44;;;26.90;36.38
50430;BME280;36359;41.556;-8.418;2022-08-19T09:39:18;100420.97;;;27.00;35.11
50430;BME280;36359;41.556;-8.418;2022-08-19T09:41:44;100415.47;;;27.05;34.93
50430;BME280;36359;41.556;-8.418;2022-08-19T09:44:10;100414.28;;;27.17;34.97
50430;BME280;36359;41.556;-8.418;2022-08-19T09:46:37;100420.75;;;27.23;35.13
50430;BME280;36359;41.556;-8.418;2022-08-19T09:49:03;100423.50;;;27.18;35.53
50430;BME280;36359;41.556;-8.418;2022-08-19T09:51:32;100421.34;;;27.08;35.10
50430;BME280;36359;41.556;-8.418;2022-08-19T09:54:00;100430.50;;;27.43;35.08
50430;BME280;36359;41.556;-8.418;2022-08-19T09:56:27;100427.72;;;27.43;33.66
50430;BME280;36359;41.556;-8.418;2022-08-19T09:58:52;100424.72;;;27.49;34.05
50430;BME280;36359;41.556;-8.418;2022-08-19T10:01:23;100428.16;;;27.56;34.86
50430;BME280;36359;41.556;-8.418;2022-08-19T10:03:51;100421.06;;;27.71;33.64
50430;BME280;36359;41.556;-8.418;2022-08-19T10:06:20;100430.81;;;27.68;34.09
50430;BME280;36359;41.556;-8.418;2022-08-19T10:08:49;100423.25;;;27.85;33.04
50430;BME280;36359;41.556;-8.418;2022-08-19T10:11:17;100412.22;;;27.74;34.12
50430;BME280;36359;41.556;-8.418;2022-08-19T10:13:44;100424.31;;;27.84;33.19
50430;BME280;36359;41.556;-8.418;2022-08-19T10:16:13;100429.72;;;28.18;32.18
50430;BME280;36359;41.556;-8.418;2022-08-19T10:18:40;100426.34;;;28.16;32.58
50430;BME280;36359;41.556;-8.418;2022-08-19T10:21:13;100424.88;;;28.41;31.58
50430;BME280;36359;41.556;-8.418;2022-08-19T10:23:42;100417.13;;;28.43;31.82
50430;BME280;36359;41.556;-8.418;2022-08-19T10:26:15;100408.25;;;28.51;31.06
50430;BME280;36359;41.556;-8.418;2022-08-19T10:28:41;100427.44;;;28.42;31.90
50430;BME280;36359;41.556;-8.418;2022-08-19T10:31:15;100415.25;;;28.26;32.14
50430;BME280;36359;41.556;-8.418;2022-08-19T10:33:43;100413.06;;;28.28;31.67
50430;BME280;36359;41.556;-8.418;2022-08-19T10:36:15;100418.53;;;28.45;31.90
50430;BME280;36359;41.556;-8.418;2022-08-19T10:38:41;100411.59;;;28.48;31.43
50430;BME280;36359;41.556;-8.418;2022-08-19T10:41:17;100412.97;;;28.83;31.70
50430;BME280;36359;41.556;-8.418;2022-08-19T10:43:44;100415.38;;;29.11;31.60
50430;BME280;36359;41.556;-8.418;2022-08-19T10:46:13;100410.41;;;29.18;30.86
50430;BME280;36359;41.556;-8.418;2022-08-19T10:48:43;100411.19;;;29.09;30.11
50430;BME280;36359;41.556;-8.418;2022-08-19T10:51:09;100404.47;;;29.05;29.90
50430;BME280;36359;41.556;-8.418;2022-08-19T10:53:54;100404.84;;;29.29;29.63
50430;BME280;36359;41.556;-8.418;2022-08-19T10:56:21;100404.06;;;29.38;29.79
50430;BME280;36359;41.556;-8.418;2022-08-19T10:59:06;100399.09;;;29.56;29.34
50430;BME280;36359;41.556;-8.418;2022-08-19T11:01:33;100403.47;;;29.31;30.35
50430;BME280;36359;41.556;-8.418;2022-08-19T11:04:00;100399.97;;;29.56;29.46
50430;BME280;36359;41.556;-8.418;2022-08-19T11:06:27;100397.09;;;29.36;30.01
50430;BME280;36359;41.556;-8.418;2022-08-19T11:08:54;100403.94;;;29.76;29.06
50430;BME280;36359;41.556;-8.418;2022-08-19T11:11:21;100398.09;;;29.77;29.17
50430;BME280;36359;41.556;-8.418;2022-08-19T11:13:48;100394.78;;;30.01;28.30
50430;BME280;36359;41.556;-8.418;2022-08-19T11:16:18;100387.22;;;30.01;28.98
50430;BME280;36359;41.556;-8.418;2022-08-19T11:18:47;100390.56;;;29.98;28.98
50430;BME280;36359;41.556;-8.418;2022-08-19T11:21:28;100385.81;;;30.09;28.12
50430;BME280;36359;41.556;-8.418;2022-08-19T11:23:59;100387.00;;;30.28;27.77
50430;BME280;36359;41.556;-8.418;2022-08-19T11:26:26;100383.91;;;30.25;28.27
50430;BME280;36359;41.556;-8.418;2022-08-19T11:28:53;100390.06;;;30.42;27.33
50430;BME280;36359;41.556;-8.418;2022-08-19T11:31:22;100378.34;;;30.30;28.13
50430;BME280;36359;41.556;-8.418;2022-08-19T11:33:48;100375.53;;;30.30;27.42
50430;BME280;36359;41.556;-8.418;2022-08-19T11:36:21;100369.91;;;30.61;27.13
50430;BME280;36359;41.556;-8.418;2022-08-19T11:38:48;100366.81;;;30.52;27.02
50430;BME280;36359;41.556;-8.418;2022-08-19T11:41:16;100363.47;;;30.60;27.28
50430;BME280;36359;41.556;-8.418;2022-08-19T11:43:43;100366.53;;;30.64;26.80
50430;BME280;36359;41.556;-8.418;2022-08-19T11:46:11;100368.75;;;30.62;26.87
50430;BME280;36359;41.556;-8.418;2022-08-19T11:48:38;100370.44;;;30.78;26.50
50430;BME280;36359;41.556;-8.418;2022-08-19T11:51:10;100365.97;;;30.77;26.82
50430;BME280;36359;41.556;-8.418;2022-08-19T11:53:36;100356.44;;;30.78;26.00
50430;BME280;36359;41.556;-8.418;2022-08-19T11:56:04;100354.50;;;30.68;26.63
50430;BME280;36359;41.556;-8.418;2022-08-19T11:58:30;100356.41;;;30.88;26.27
50430;BME280;36359;41.556;-8.418;2022-08-19T12:00:56;100351.97;;;30.67;25.13
50430;BME280;36359;41.556;-8.418;2022-08-19T12:03:23;100357.28;;;30.84;25.69
50430;BME280;36359;41.556;-8.418;2022-08-19T12:05:49;100343.50;;;31.03;25.19
50430;BME280;36359;41.556;-8.418;2022-08-19T12:08:16;100351.03;;;31.12;25.89
50430;BME280;36359;41.556;-8.418;2022-08-19T12:13:14;100343.56;;;30.82;26.21
50430;BME280;36359;41.556;-8.418;2022-08-19T12:15:46;100340.47;;;30.84;25.73
50430;BME280;36359;41.556;-8.418;2022-08-19T12:18:12;100335.69;;;30.94;24.77
50430;BME280;36359;41.556;-8.418;2022-08-19T12:20:43;100326.97;;;31.01;25.58
50430;BME280;36359;41.556;-8.418;2022-08-19T12:23:11;100332.91;;;30.94;26.07
50430;BME280;36359;41.556;-8.418;2022-08-19T12:25:42;100320.72;;;31.25;25.52
50430;BME280;36359;41.556;-8.418;2022-08-19T12:28:21;100331.13;;;31.09;25.68
50430;BME280;36359;41.556;-8.418;2022-08-19T12:30:48;100319.41;;;31.02;26.00
50430;BME280;36359;41.556;-8.418;2022-08-19T12:33:19;100321.63;;;31.10;25.61
50430;BME280;36359;41.556;-8.418;2022-08-19T12:35:49;100323.25;;;31.21;25.49
50430;BME280;36359;41.556;-8.418;2022-08-19T12:38:16;100309.63;;;30.94;26.10
50430;BME280;36359;41.556;-8.418;2022-08-19T12:40:45;100318.84;;;31.05;25.86
50430;BME280;36359;41.556;-8.418;2022-08-19T12:43:11;100314.94;;;31.60;24.13
50430;BME280;36359;41.556;-8.418;2022-08-19T12:45:39;100307.56;;;31.70;24.38
50430;BME280;36359;41.556;-8.418;2022-08-19T12:48:04;100314.13;;;31.55;24.68
50430;BME280;36359;41.556;-8.418;2022-08-19T12:50:30;100304.84;;;31.99;24.12
50430;BME280;36359;41.556;-8.418;2022-08-19T12:52:57;100311.88;;;31.96;24.09
50430;BME280;36359;41.556;-8.418;2022-08-19T12:55:23;100309.19;;;31.81;24.79
50430;BME280;36359;41.556;-8.418;2022-08-19T12:57:50;100305.22;;;31.42;24.52
50430;BME280;36359;41.556;-8.418;2022-08-19T13:00:18;100301.47;;;31.62;25.24
50430;BME280;36359;41.556;-8.418;2022-08-19T13:02:51;100296.22;;;31.90;24.83
50430;BME280;36359;41.556;-8.418;2022-08-19T13:05:24;100296.13;;;32.34;24.38